createdAt,value
2022-10-03T00:01:59.361Z,102085.91
2022-10-03T00:05:24.568Z,102089.09
2022-10-03T00:08:51.872Z,102089.47
2022-10-03T00:12:15.150Z,102087.13
2022-10-03T00:15:16.005Z,102094.34
2022-10-03T00:18:15.602Z,102099.66
2022-10-03T00:21:28.215Z,102099.88
2022-10-03T00:25:12.565Z,102097.53
2022-10-03T00:28:24.758Z,102099.06
2022-10-03T00:31:52.526Z,102106.41
2022-10-03T00:35:07.133Z,102098.22
2022-10-03T00:38:06.871Z,102106.09
2022-10-03T00:41:31.039Z,102109.22
2022-10-03T00:44:46.236Z,102107.78
2022-10-03T00:48:03.905Z,102110.28
2022-10-03T00:51:25.950Z,102120.81
2022-10-03T00:54:29.280Z,102123.88
2022-10-03T00:57:29.543Z,102124.06
2022-10-03T01:00:28.567Z,102132.03
2022-10-03T01:03:40.922Z,102128.44
2022-10-03T01:06:53.444Z,102127.25
2022-10-03T01:10:09.791Z,102137.75
2022-10-03T01:13:32.670Z,102137.91
2022-10-03T01:16:52.021Z,102150.19
2022-10-03T01:19:55.969Z,102139.41
2022-10-03T01:22:58.324Z,102144.59
2022-10-03T01:26:19.937Z,102142.56
2022-10-03T01:29:45.457Z,102147.44
2022-10-03T01:32:53.183Z,102157.91
2022-10-03T01:35:53.739Z,102148.63
2022-10-03T01:38:53.858Z,102151.72
2022-10-03T01:42:21.583Z,102148.81
2022-10-03T01:45:30.876Z,102156.00
2022-10-03T01:48:45.899Z,102156.16
2022-10-03T01:51:51.560Z,102164.31
2022-10-03T01:55:01.674Z,102164.66
2022-10-03T01:58:05.357Z,102158.53
2022-10-03T02:01:09.924Z,102156.03
2022-10-03T02:04:14.635Z,102157.50
2022-10-03T02:07:27.018Z,102170.88
2022-10-03T02:10:31.723Z,102174.31
2022-10-03T02:13:50.557Z,102164.00
2022-10-03T02:17:10.875Z,102170.50
2022-10-03T02:20:23.814Z,102174.19
2022-10-03T02:23:33.247Z,102186.63
2022-10-03T02:26:45.182Z,102182.97
2022-10-03T02:29:52.405Z,102182.16
2022-10-03T02:33:05.051Z,102185.47
2022-10-03T02:36:26.085Z,102182.91
2022-10-03T02:39:35.817Z,102180.59
2022-10-03T02:42:51.770Z,102179.94
2022-10-03T02:46:07.361Z,102181.44
2022-10-03T02:49:25.777Z,102185.56
2022-10-03T02:52:57.693Z,102178.56
2022-10-03T02:55:54.909Z,102192.75
2022-10-03T02:58:51.667Z,102190.94
2022-10-03T03:02:13.815Z,102185.72
2022-10-03T03:06:04.840Z,102189.28
2022-10-03T03:09:17.372Z,102198.81
2022-10-03T03:12:29.060Z,102209.97
2022-10-03T03:15:47.903Z,102204.66
2022-10-03T03:19:09.375Z,102204.66
2022-10-03T03:22:16.440Z,102202.44
2022-10-03T03:25:33.484Z,102194.09
2022-10-03T03:28:54.864Z,102192.75
2022-10-03T03:32:14.645Z,102199.09
2022-10-03T03:35:39.419Z,102203.25
2022-10-03T03:39:14.303Z,102209.13
2022-10-03T03:42:44.914Z,102201.25
2022-10-03T03:46:04.430Z,102202.75
2022-10-03T03:49:13.727Z,102208.16
2022-10-03T03:52:11.152Z,102200.25
2022-10-03T03:55:17.033Z,102207.91
2022-10-03T03:58:26.976Z,102206.69
2022-10-03T04:01:43.457Z,102213.53
2022-10-03T04:05:15.011Z,102224.19
2022-10-03T04:08:38.076Z,102224.38
2022-10-03T04:11:57.696Z,102226.47
2022-10-03T04:15:07.435Z,102232.34
2022-10-03T04:18:25.639Z,102220.00
2022-10-03T04:21:41.071Z,102228.38
2022-10-03T04:25:26.335Z,102233.94
2022-10-03T04:28:40.706Z,102232.94
2022-10-03T04:31:44.720Z,102233.59
2022-10-03T04:35:00.627Z,102223.56
2022-10-03T04:38:06.120Z,102230.91
2022-10-03T04:41:05.449Z,102231.56
2022-10-03T04:44:12.167Z,102228.91
2022-10-03T04:47:17.225Z,102240.97
2022-10-03T04:50:32.739Z,102233.97
2022-10-03T04:53:57.939Z,102245.31
2022-10-03T04:57:32.469Z,102256.13
2022-10-03T05:00:46.715Z,102257.63
2022-10-03T05:03:53.322Z,102256.59
2022-10-03T05:07:02.590Z,102258.63
2022-10-03T05:10:22.246Z,102260.94
2022-10-03T05:13:42.485Z,102264.72
2022-10-03T05:17:06.233Z,102261.06
2022-10-03T05:20:13.223Z,102268.03
2022-10-03T05:23:34.936Z,102274.56
2022-10-03T05:26:50.137Z,102282.72
2022-10-03T05:30:08.060Z,102278.38
2022-10-03T05:33:42.898Z,102284.22
2022-10-03T05:36:55.652Z,102278.88
2022-10-03T05:39:54.128Z,102281.72
2022-10-03T05:43:03.956Z,102283.06
2022-10-03T05:46:10.123Z,102287.75
2022-10-03T05:49:28.868Z,102282.91
2022-10-03T05:52:41.526Z,102285.94
2022-10-03T05:56:02.347Z,102287.78
2022-10-03T05:59:23.232Z,102289.16
2022-10-03T06:02:50.964Z,102292.66
2022-10-03T06:06:02.145Z,102297.78
2022-10-03T06:09:08.581Z,102298.63
2022-10-03T06:12:10.152Z,102300.25
2022-10-03T06:15:19.423Z,102286.94
2022-10-03T06:18:51.396Z,102294.78
2022-10-03T06:22:16.952Z,102290.72
2022-10-03T06:25:26.052Z,102302.09
2022-10-03T06:28:47.546Z,102311.53
2022-10-03T06:31:49.316Z,102311.53
2022-10-03T06:34:56.129Z,102310.53
2022-10-03T06:38:11.737Z,102309.50
2022-10-03T06:41:40.283Z,102312.34
2022-10-03T06:45:09.799Z,102309.88
2022-10-03T06:48:19.317Z,102317.56
2022-10-03T06:51:51.596Z,102318.59
2022-10-03T06:55:01.929Z,102316.94
2022-10-03T06:58:24.246Z,102320.97
2022-10-03T07:01:37.006Z,102316.16
2022-10-03T07:05:05.558Z,102310.50
2022-10-03T07:08:15.750Z,102313.19
2022-10-03T07:11:20.571Z,102332.34
2022-10-03T07:14:38.937Z,102330.31
2022-10-03T07:17:54.343Z,102333.47
2022-10-03T07:21:16.675Z,102343.13
2022-10-03T07:24:49.051Z,102344.75
2022-10-03T07:28:10.039Z,102340.56
2022-10-03T07:31:07.047Z,102349.06
2022-10-03T07:34:22.792Z,102346.06
2022-10-03T07:38:06.694Z,102346.91
2022-10-03T07:41:45.237Z,102351.97
2022-10-03T07:45:09.587Z,102362.09
2022-10-03T07:48:14.871Z,102371.91
2022-10-03T07:51:33.824Z,102378.09
2022-10-03T07:54:49.316Z,102366.06
2022-10-03T07:58:20.410Z,102373.22
2022-10-03T08:01:29.546Z,102366.91
2022-10-03T08:05:28.139Z,102372.88
2022-10-03T08:08:25.032Z,102385.03
2022-10-03T08:11:31.725Z,102391.91
2022-10-03T08:14:42.462Z,102397.06
2022-10-03T08:17:57.749Z,102389.25
2022-10-03T08:21:01.564Z,102391.06
2022-10-03T08:24:29.088Z,102392.19
2022-10-03T08:28:10.421Z,102402.31
2022-10-03T08:31:21.284Z,102401.94
2022-10-03T08:34:23.443Z,102398.44
2022-10-03T08:38:06.279Z,102403.44
2022-10-03T08:41:28.111Z,102397.03
2022-10-03T08:44:31.092Z,102398.09
2022-10-03T08:47:51.476Z,102390.59
2022-10-03T08:51:04.934Z,102399.25
2022-10-03T08:54:11.391Z,102405.28
2022-10-03T08:57:33.016Z,102401.50
2022-10-03T09:00:58.068Z,102406.16
2022-10-03T09:04:26.224Z,102396.09
2022-10-03T09:07:23.726Z,102417.53
2022-10-03T09:10:58.075Z,102407.19
2022-10-03T09:14:27.306Z,102407.84
2022-10-03T09:17:49.362Z,102408.50
2022-10-03T09:21:11.095Z,102406.91
2022-10-03T09:24:45.820Z,102421.16
2022-10-03T09:28:25.146Z,102412.13
2022-10-03T09:31:58.816Z,102414.81
2022-10-03T09:35:14.767Z,102409.78
2022-10-03T09:38:23.229Z,102414.13
2022-10-03T09:41:39.274Z,102403.06
2022-10-03T09:44:39.567Z,102413.34
2022-10-03T09:47:48.963Z,102403.19
2022-10-03T09:51:09.312Z,102413.50
2022-10-03T09:54:22.443Z,102408.94
2022-10-03T09:57:39.136Z,102403.16
2022-10-03T10:01:11.443Z,102409.34
2022-10-03T10:04:53.813Z,102409.91
2022-10-03T10:08:33.907Z,102410.63
2022-10-03T10:11:52.099Z,102397.81
2022-10-03T10:14:56.382Z,102404.44
2022-10-03T10:18:08.531Z,102403.72
2022-10-03T10:21:46.336Z,102398.72
2022-10-03T10:25:09.367Z,102388.97
2022-10-03T10:28:15.670Z,102387.06
2022-10-03T10:31:50.216Z,102382.38
2022-10-03T10:35:31.759Z,102383.38
2022-10-03T10:38:50.295Z,102384.91
2022-10-03T10:42:00.789Z,102380.63
2022-10-03T10:45:17.016Z,102370.47
2022-10-03T10:48:39.220Z,102369.91
2022-10-03T10:52:11.403Z,102373.13
2022-10-03T10:55:14.524Z,102375.88
2022-10-03T10:58:23.433Z,102365.84
2022-10-03T11:01:40.851Z,102363.09
2022-10-03T11:05:07.141Z,102363.34
2022-10-03T11:08:49.959Z,102374.34
2022-10-03T11:11:59.652Z,102374.69
2022-10-03T11:15:15.201Z,102375.13
2022-10-03T11:18:49.656Z,102381.28
2022-10-03T11:22:04.544Z,102375.16
2022-10-03T11:25:29.517Z,102362.56
2022-10-03T11:28:44.982Z,102354.44
2022-10-03T11:32:16.103Z,102364.72
2022-10-03T11:35:58.369Z,102352.59
2022-10-03T11:39:05.879Z,102356.25
2022-10-03T11:42:13.682Z,102343.91
2022-10-03T11:45:36.464Z,102354.50
2022-10-03T11:49:02.305Z,102353.31
2022-10-03T11:52:09.108Z,102354.50
2022-10-03T11:55:17.647Z,102352.94
2022-10-03T11:58:52.608Z,102350.34
2022-10-03T12:02:00.671Z,102356.19
2022-10-03T12:05:07.765Z,102367.09
2022-10-03T12:08:32.229Z,102362.09
2022-10-03T12:11:34.379Z,102365.84
2022-10-03T12:14:44.943Z,102357.84
2022-10-03T12:17:46.664Z,102354.94
2022-10-03T12:21:01.180Z,102365.28
2022-10-03T12:24:23.735Z,102373.25
2022-10-03T12:27:26.516Z,102353.78
2022-10-03T12:30:23.479Z,102353.81
2022-10-03T12:33:48.002Z,102350.59
2022-10-03T12:36:55.713Z,102344.19
2022-10-03T12:40:06.624Z,102348.41
2022-10-03T12:43:14.486Z,102349.81
2022-10-03T12:46:39.253Z,102350.09
2022-10-03T12:49:54.932Z,102347.88
2022-10-03T12:53:07.749Z,102343.09
2022-10-03T12:56:13.335Z,102343.41
2022-10-03T12:59:44.913Z,102341.47
2022-10-03T13:02:43.422Z,102339.59
2022-10-03T13:05:58.247Z,102336.75
2022-10-03T13:09:14.296Z,102343.41
2022-10-03T13:12:40.258Z,102356.84
2022-10-03T13:15:49.332Z,102344.41
2022-10-03T13:18:50.870Z,102344.50
2022-10-03T13:22:21.734Z,102344.25
2022-10-03T13:25:21.924Z,102340.16
2022-10-03T13:28:56.277Z,102348.38
2022-10-03T13:32:05.463Z,102346.53
2022-10-03T13:35:24.135Z,102336.13
2022-10-03T13:39:01.140Z,102342.03
2022-10-03T13:42:16.875Z,102335.94
2022-10-03T13:45:15.334Z,102334.59
2022-10-03T13:48:20.962Z,102327.06
2022-10-03T13:51:47.607Z,102336.66
2022-10-03T13:55:13.211Z,102330.94
2022-10-03T13:58:16.360Z,102325.13
2022-10-03T14:01:24.302Z,102331.84
2022-10-03T14:04:47.997Z,102330.19
2022-10-03T14:08:03.671Z,102323.25
2022-10-03T14:11:00.455Z,102343.81
2022-10-03T14:14:01.503Z,102334.22
2022-10-03T14:17:04.864Z,102328.78
2022-10-03T14:20:19.979Z,102322.97
2022-10-03T14:23:32.883Z,102329.47
2022-10-03T14:26:53.181Z,102334.25
2022-10-03T14:30:16.941Z,102326.81
2022-10-03T14:33:17.776Z,102313.97
2022-10-03T14:36:40.018Z,102317.22
2022-10-03T14:40:28.333Z,102315.56
2022-10-03T14:43:38.254Z,102319.59
2022-10-03T14:46:39.112Z,102306.88
2022-10-03T14:49:57.969Z,102312.06
2022-10-03T14:53:06.447Z,102303.75
2022-10-03T14:56:09.871Z,102318.97
2022-10-03T14:59:29.564Z,102300.72
2022-10-03T15:02:38.666Z,102300.81
2022-10-03T15:05:36.307Z,102298.13
2022-10-03T15:08:57.154Z,102299.69
2022-10-03T15:12:03.102Z,102297.94
2022-10-03T15:15:03.550Z,102295.72
2022-10-03T15:18:03.062Z,102295.44
2022-10-03T15:21:00.760Z,102289.09
2022-10-03T15:24:05.218Z,102291.28
2022-10-03T15:27:08.336Z,102288.91
2022-10-03T15:30:06.318Z,102276.38
2022-10-03T15:33:24.023Z,102271.00
2022-10-03T15:36:23.475Z,102266.41
2022-10-03T15:39:24.492Z,102271.13
2022-10-03T15:42:23.368Z,102267.97
2022-10-03T15:45:26.219Z,102266.50
2022-10-03T15:48:25.228Z,102267.34
2022-10-03T15:51:24.601Z,102264.50
2022-10-03T15:54:23.590Z,102266.41
2022-10-03T15:57:29.370Z,102258.66
2022-10-03T16:00:29.012Z,102260.41
2022-10-03T16:03:47.647Z,102275.16
2022-10-03T16:07:07.811Z,102272.97
2022-10-03T16:10:34.618Z,102270.75
2022-10-03T16:13:49.055Z,102262.56
2022-10-03T16:16:48.816Z,102258.94
2022-10-03T16:19:53.733Z,102258.66
2022-10-03T16:23:09.097Z,102267.25
2022-10-03T16:26:22.633Z,102265.84
2022-10-03T16:29:25.019Z,102262.53
2022-10-03T16:32:23.903Z,102265.75
2022-10-03T16:35:41.597Z,102266.88
2022-10-03T16:38:59.823Z,102259.16
2022-10-03T16:41:56.872Z,102259.78
2022-10-03T16:44:55.575Z,102254.81
2022-10-03T16:48:13.759Z,102253.88
2022-10-03T16:51:37.900Z,102254.59
2022-10-03T16:54:36.418Z,102256.66
2022-10-03T16:57:42.218Z,102250.38
2022-10-03T17:01:28.309Z,102251.72
2022-10-03T17:04:39.712Z,102250.25
2022-10-03T17:07:47.896Z,102245.28
2022-10-03T17:10:44.959Z,102246.00
2022-10-03T17:13:43.984Z,102242.00
2022-10-03T17:16:47.731Z,102242.59
2022-10-03T17:19:46.143Z,102245.88
2022-10-03T17:22:45.403Z,102244.09
2022-10-03T17:25:49.504Z,102243.56
2022-10-03T17:28:54.638Z,102237.16
2022-10-03T17:32:22.064Z,102248.78
2022-10-03T17:35:39.759Z,102254.88
2022-10-03T17:39:14.477Z,102244.81
2022-10-03T17:42:28.475Z,102239.25
2022-10-03T17:45:34.932Z,102249.34
2022-10-03T17:48:40.088Z,102249.44
2022-10-03T17:51:44.734Z,102245.88
2022-10-03T17:54:41.735Z,102249.19
2022-10-03T17:57:57.921Z,102249.03
2022-10-03T18:01:10.277Z,102242.09
2022-10-03T18:04:21.689Z,102238.28
2022-10-03T18:07:19.514Z,102226.34
2022-10-03T18:10:25.347Z,102225.66
2022-10-03T18:13:24.351Z,102227.56
2022-10-03T18:16:38.940Z,102225.88
2022-10-03T18:19:47.464Z,102224.34
2022-10-03T18:22:48.310Z,102226.72
2022-10-03T18:26:18.706Z,102230.03
2022-10-03T18:29:33.400Z,102239.41
2022-10-03T18:32:32.697Z,102233.25
2022-10-03T18:35:30.411Z,102242.22
2022-10-03T18:38:28.597Z,102234.16
2022-10-03T18:41:26.037Z,102243.91
2022-10-03T18:44:22.825Z,102236.75
2022-10-03T18:47:27.210Z,102232.13
2022-10-03T18:50:31.895Z,102231.31
2022-10-03T18:53:37.506Z,102235.25
2022-10-03T18:56:35.128Z,102239.47
2022-10-03T18:59:47.774Z,102239.94
2022-10-03T19:02:51.835Z,102228.19
2022-10-03T19:05:55.822Z,102234.72
2022-10-03T19:08:56.645Z,102231.59
2022-10-03T19:12:18.488Z,102234.13
2022-10-03T19:15:34.504Z,102244.38
2022-10-03T19:18:41.743Z,102230.72
2022-10-03T19:21:40.234Z,102232.69
2022-10-03T19:24:57.418Z,102228.97
2022-10-03T19:28:01.920Z,102216.72
2022-10-03T19:31:26.774Z,102225.66
2022-10-03T19:34:39.483Z,102225.31
2022-10-03T19:37:45.255Z,102231.91
2022-10-03T19:40:55.247Z,102229.25
2022-10-03T19:43:53.326Z,102229.47
2022-10-03T19:47:01.990Z,102224.25
2022-10-03T19:50:14.359Z,102217.00
2022-10-03T19:53:15.152Z,102222.94
2022-10-03T19:56:15.574Z,102225.97
2022-10-03T19:59:15.345Z,102228.22
2022-10-03T20:02:12.998Z,102228.81
2022-10-03T20:05:20.183Z,102225.28
2022-10-03T20:08:31.832Z,102229.97
2022-10-03T20:11:41.178Z,102225.34
2022-10-03T20:14:41.705Z,102210.72
2022-10-03T20:17:41.024Z,102207.28
2022-10-03T20:20:38.467Z,102215.41
2022-10-03T20:23:36.073Z,102226.66
2022-10-03T20:26:38.712Z,102225.56
2022-10-03T20:29:43.529Z,102217.72
2022-10-03T20:32:43.979Z,102228.44
2022-10-03T20:35:52.305Z,102215.94
2022-10-03T20:39:02.241Z,102203.69
2022-10-03T20:42:07.455Z,102216.38
2022-10-03T20:45:25.237Z,102221.78
2022-10-03T20:48:23.532Z,102214.47
2022-10-03T20:51:22.580Z,102226.78
2022-10-03T20:54:24.296Z,102210.78
2022-10-03T20:57:23.086Z,102210.88
2022-10-03T21:00:22.371Z,102229.22
2022-10-03T21:03:26.608Z,102228.19
2022-10-03T21:06:28.866Z,102220.91
2022-10-03T21:09:53.632Z,102212.47
2022-10-03T21:13:02.414Z,102208.06
2022-10-03T21:16:01.265Z,102216.72
2022-10-03T21:19:03.917Z,102209.22
2022-10-03T21:22:05.383Z,102204.38
2022-10-03T21:25:05.205Z,102206.09
2022-10-03T21:28:05.521Z,102203.34
2022-10-03T21:31:21.847Z,102201.41
2022-10-03T21:34:57.299Z,102193.50
2022-10-03T21:38:27.006Z,102173.47
2022-10-03T21:42:03.272Z,102181.09
2022-10-03T21:45:29.062Z,102212.00
2022-10-03T21:48:25.729Z,102194.88
2022-10-03T21:51:29.158Z,102187.81
2022-10-03T21:54:41.143Z,102210.75
2022-10-03T21:57:59.544Z,102205.56
2022-10-03T22:01:03.667Z,102207.38
2022-10-03T22:04:15.383Z,102190.03
2022-10-03T22:07:15.415Z,102194.09
2022-10-03T22:10:21.871Z,102206.38
2022-10-03T22:13:19.254Z,102205.81
2022-10-03T22:16:16.023Z,102203.06
2022-10-03T22:19:16.591Z,102187.13
2022-10-03T22:22:23.524Z,102196.34
2022-10-03T22:25:45.414Z,102191.75
2022-10-03T22:28:57.901Z,102176.75
2022-10-03T22:32:18.338Z,102183.94
2022-10-03T22:35:34.296Z,102167.53
2022-10-03T22:38:33.249Z,102172.44
2022-10-03T22:41:30.019Z,102181.44
2022-10-03T22:44:28.722Z,102179.03
2022-10-03T22:47:28.932Z,102189.63
2022-10-03T22:50:30.620Z,102187.66
2022-10-03T22:53:31.098Z,102184.84
2022-10-03T22:56:54.950Z,102179.72
2022-10-03T23:00:10.920Z,102177.03
2022-10-03T23:03:16.931Z,102178.25
2022-10-03T23:06:27.230Z,102173.44
2022-10-03T23:09:28.665Z,102153.88
2022-10-03T23:12:28.156Z,102154.34
2022-10-03T23:15:24.773Z,102142.16
2022-10-03T23:18:37.882Z,102154.53
2022-10-03T23:21:40.593Z,102145.88
2022-10-03T23:24:41.357Z,102133.44
2022-10-03T23:27:53.351Z,102126.75
2022-10-03T23:30:53.437Z,102131.75
2022-10-03T23:33:50.883Z,102139.16
2022-10-03T23:36:59.490Z,102121.75
2022-10-03T23:40:00.272Z,102111.41
2022-10-03T23:43:23.227Z,102109.50
2022-10-03T23:46:20.652Z,102116.34
2022-10-03T23:49:18.428Z,102121.50
2022-10-03T23:52:44.836Z,102117.31
2022-10-03T23:55:42.086Z,102114.00
2022-10-03T23:58:39.191Z,102099.91
